sensor_id;sensor_type;location;lat;lon;timestamp;P1;durP1;ratioP1;P2;durP2;ratioP2
11078;SDS011;5592;49.234;7.268;2023-05-07T00:00:00;5.53;;;3.10;;
11078;SDS011;5592;49.234;7.268;2023-05-07T00:02:26;6.23;;;3.40;;
11078;SDS011;5592;49.234;7.268;2023-05-07T00:04:51;3.70;;;3.37;;
11078;SDS011;5592;49.234;7.268;2023-05-07T00:07:17;5.80;;;3.60;;
11078;SDS011;5592;49.234;7.268;2023-05-07T00:09:43;6.67;;;3.20;;
11078;SDS011;5592;49.234;7.268;2023-05-07T00:12:08;4.60;;;3.33;;
11078;SDS011;5592;49.234;7.268;2023-05-07T00:14:34;6.00;;;3.33;;
11078;SDS011;5592;49.234;7.268;2023-05-07T00:17:00;5.00;;;3.70;;
11078;SDS011;5592;49.234;7.268;2023-05-07T00:19:26;4.13;;;3.40;;
11078;SDS011;5592;49.234;7.268;2023-05-07T00:21:51;9.07;;;3.57;;
11078;SDS011;5592;49.234;7.268;2023-05-07T00:24:18;6.87;;;3.80;;
11078;SDS011;5592;49.234;7.268;2023-05-07T00:26:44;4.90;;;3.70;;
11078;SDS011;5592;49.234;7.268;2023-05-07T00:29:10;4.63;;;3.60;;
11078;SDS011;5592;49.234;7.268;2023-05-07T00:31:35;6.50;;;3.30;;
11078;SDS011;5592;49.234;7.268;2023-05-07T00:34:01;4.73;;;4.07;;
11078;SDS011;5592;49.234;7.268;2023-05-07T00:36:27;6.07;;;4.03;;
11078;SDS011;5592;49.234;7.268;2023-05-07T00:38:54;4.50;;;3.70;;
11078;SDS011;5592;49.234;7.268;2023-05-07T00:41:20;7.87;;;3.70;;
11078;SDS011;5592;49.234;7.268;2023-05-07T00:43:46;4.13;;;3.73;;
11078;SDS011;5592;49.234;7.268;2023-05-07T00:46:12;7.23;;;4.77;;
11078;SDS011;5592;49.234;7.268;2023-05-07T00:48:38;7.63;;;3.60;;
11078;SDS011;5592;49.234;7.268;2023-05-07T00:51:04;5.17;;;4.53;;
11078;SDS011;5592;49.234;7.268;2023-05-07T00:53:30;7.70;;;4.20;;
11078;SDS011;5592;49.234;7.268;2023-05-07T00:55:56;7.00;;;4.50;;
11078;SDS011;5592;49.234;7.268;2023-05-07T00:58:22;4.27;;;3.87;;
11078;SDS011;5592;49.234;7.268;2023-05-07T01:00:48;8.30;;;4.50;;
11078;SDS011;5592;49.234;7.268;2023-05-07T01:03:14;11.63;;;4.60;;
11078;SDS011;5592;49.234;7.268;2023-05-07T01:05:39;7.27;;;4.33;;
11078;SDS011;5592;49.234;7.268;2023-05-07T01:08:07;6.43;;;4.37;;
11078;SDS011;5592;49.234;7.268;2023-05-07T01:10:33;5.43;;;3.80;;
11078;SDS011;5592;49.234;7.268;2023-05-07T01:12:58;9.13;;;4.17;;
11078;SDS011;5592;49.234;7.268;2023-05-07T01:15:25;5.80;;;3.60;;
11078;SDS011;5592;49.234;7.268;2023-05-07T01:17:50;5.07;;;3.70;;
11078;SDS011;5592;49.234;7.268;2023-05-07T01:20:17;4.37;;;3.97;;
11078;SDS011;5592;49.234;7.268;2023-05-07T01:22:43;5.67;;;3.60;;
11078;SDS011;5592;49.234;7.268;2023-05-07T01:25:10;4.90;;;3.67;;
11078;SDS011;5592;49.234;7.268;2023-05-07T01:27:35;3.70;;;3.30;;
11078;SDS011;5592;49.234;7.268;2023-05-07T01:30:02;5.33;;;3.53;;
11078;SDS011;5592;49.234;7.268;2023-05-07T01:32:32;3.83;;;3.50;;
11078;SDS011;5592;49.234;7.268;2023-05-07T01:35:02;6.90;;;3.40;;
11078;SDS011;5592;49.234;7.268;2023-05-07T01:37:30;8.40;;;4.50;;
11078;SDS011;5592;49.234;7.268;2023-05-07T01:39:56;6.60;;;4.20;;
11078;SDS011;5592;49.234;7.268;2023-05-07T01:42:22;8.33;;;4.60;;
11078;SDS011;5592;49.234;7.268;2023-05-07T01:44:48;6.57;;;4.40;;
11078;SDS011;5592;49.234;7.268;2023-05-07T01:47:14;8.77;;;4.40;;
11078;SDS011;5592;49.234;7.268;2023-05-07T01:49:41;13.30;;;4.80;;
11078;SDS011;5592;49.234;7.268;2023-05-07T01:52:07;4.67;;;3.53;;
11078;SDS011;5592;49.234;7.268;2023-05-07T01:54:34;5.47;;;4.07;;
11078;SDS011;5592;49.234;7.268;2023-05-07T01:57:00;6.27;;;4.10;;
11078;SDS011;5592;49.234;7.268;2023-05-07T01:59:26;7.37;;;4.57;;
11078;SDS011;5592;49.234;7.268;2023-05-07T02:01:51;6.27;;;4.50;;
11078;SDS011;5592;49.234;7.268;2023-05-07T02:04:17;6.67;;;3.77;;
11078;SDS011;5592;49.234;7.268;2023-05-07T02:06:43;4.73;;;3.70;;
11078;SDS011;5592;49.234;7.268;2023-05-07T02:09:08;5.43;;;3.87;;
11078;SDS011;5592;49.234;7.268;2023-05-07T02:11:34;9.23;;;4.87;;
11078;SDS011;5592;49.234;7.268;2023-05-07T02:14:00;6.07;;;4.20;;
11078;SDS011;5592;49.234;7.268;2023-05-07T02:16:25;8.80;;;3.93;;
11078;SDS011;5592;49.234;7.268;2023-05-07T02:18:51;5.60;;;3.90;;
11078;SDS011;5592;49.234;7.268;2023-05-07T02:21:17;5.70;;;4.03;;
11078;SDS011;5592;49.234;7.268;2023-05-07T02:23:42;8.77;;;4.00;;
11078;SDS011;5592;49.234;7.268;2023-05-07T02:26:08;7.83;;;4.10;;
11078;SDS011;5592;49.234;7.268;2023-05-07T02:28:33;7.73;;;4.40;;
11078;SDS011;5592;49.234;7.268;2023-05-07T02:31:02;6.63;;;5.03;;
11078;SDS011;5592;49.234;7.268;2023-05-07T02:33:28;9.23;;;5.17;;
11078;SDS011;5592;49.234;7.268;2023-05-07T02:35:54;9.10;;;4.60;;
11078;SDS011;5592;49.234;7.268;2023-05-07T02:38:20;7.00;;;5.23;;
11078;SDS011;5592;49.234;7.268;2023-05-07T02:40:45;8.53;;;4.43;;
11078;SDS011;5592;49.234;7.268;2023-05-07T02:43:11;8.73;;;4.53;;
11078;SDS011;5592;49.234;7.268;2023-05-07T02:45:37;9.83;;;5.00;;
11078;SDS011;5592;49.234;7.268;2023-05-07T02:48:03;7.07;;;4.90;;
11078;SDS011;5592;49.234;7.268;2023-05-07T02:50:30;12.30;;;4.33;;
11078;SDS011;5592;49.234;7.268;2023-05-07T02:52:57;8.77;;;4.40;;
11078;SDS011;5592;49.234;7.268;2023-05-07T02:55:23;8.03;;;5.20;;
11078;SDS011;5592;49.234;7.268;2023-05-07T02:57:49;5.40;;;4.07;;
11078;SDS011;5592;49.234;7.268;2023-05-07T03:00:15;5.40;;;3.83;;
11078;SDS011;5592;49.234;7.268;2023-05-07T03:02:42;4.83;;;3.80;;
11078;SDS011;5592;49.234;7.268;2023-05-07T03:05:11;10.97;;;4.10;;
11078;SDS011;5592;49.234;7.268;2023-05-07T03:07:37;6.83;;;4.60;;
11078;SDS011;5592;49.234;7.268;2023-05-07T03:10:04;8.60;;;4.20;;
11078;SDS011;5592;49.234;7.268;2023-05-07T03:12:30;6.20;;;4.17;;
11078;SDS011;5592;49.234;7.268;2023-05-07T03:14:56;5.70;;;4.43;;
11078;SDS011;5592;49.234;7.268;2023-05-07T03:17:22;12.00;;;4.53;;
11078;SDS011;5592;49.234;7.268;2023-05-07T03:19:47;6.63;;;4.67;;
11078;SDS011;5592;49.234;7.268;2023-05-07T03:22:13;5.53;;;4.10;;
11078;SDS011;5592;49.234;7.268;2023-05-07T03:24:39;8.87;;;4.20;;
11078;SDS011;5592;49.234;7.268;2023-05-07T03:27:04;8.50;;;5.23;;
11078;SDS011;5592;49.234;7.268;2023-05-07T03:29:30;22.53;;;5.63;;
11078;SDS011;5592;49.234;7.268;2023-05-07T03:31:56;7.30;;;5.13;;
11078;SDS011;5592;49.234;7.268;2023-05-07T03:34:21;7.57;;;4.70;;
11078;SDS011;5592;49.234;7.268;2023-05-07T03:36:48;7.37;;;4.83;;
11078;SDS011;5592;49.234;7.268;2023-05-07T03:39:14;8.53;;;5.20;;
11078;SDS011;5592;49.234;7.268;2023-05-07T03:41:39;8.00;;;5.80;;
11078;SDS011;5592;49.234;7.268;2023-05-07T03:44:05;9.73;;;5.30;;
11078;SDS011;5592;49.234;7.268;2023-05-07T03:46:31;7.80;;;5.00;;
11078;SDS011;5592;49.234;7.268;2023-05-07T03:48:58;7.80;;;5.17;;
11078;SDS011;5592;49.234;7.268;2023-05-07T03:51:24;9.93;;;5.33;;
11078;SDS011;5592;49.234;7.268;2023-05-07T03:53:51;9.23;;;4.37;;
11078;SDS011;5592;49.234;7.268;2023-05-07T03:56:22;6.87;;;4.17;;
11078;SDS011;5592;49.234;7.268;2023-05-07T03:58:48;6.67;;;4.70;;
11078;SDS011;5592;49.234;7.268;2023-05-07T04:01:13;5.60;;;4.13;;
11078;SDS011;5592;49.234;7.268;2023-05-07T04:03:39;5.50;;;4.40;;
11078;SDS011;5592;49.234;7.268;2023-05-07T04:06:04;8.30;;;4.93;;
11078;SDS011;5592;49.234;7.268;2023-05-07T04:08:31;8.03;;;4.40;;
11078;SDS011;5592;49.234;7.268;2023-05-07T04:10:56;6.13;;;4.07;;
11078;SDS011;5592;49.234;7.268;2023-05-07T04:13:22;7.43;;;4.30;;
11078;SDS011;5592;49.234;7.268;2023-05-07T04:15:48;5.63;;;4.60;;
11078;SDS011;5592;49.234;7.268;2023-05-07T04:18:14;6.90;;;4.90;;
11078;SDS011;5592;49.234;7.268;2023-05-07T04:20:40;5.40;;;4.50;;
11078;SDS011;5592;49.234;7.268;2023-05-07T04:23:06;5.90;;;4.73;;
11078;SDS011;5592;49.234;7.268;2023-05-07T04:25:32;5.97;;;4.27;;
11078;SDS011;5592;49.234;7.268;2023-05-07T04:27:58;5.60;;;4.67;;
11078;SDS011;5592;49.234;7.268;2023-05-07T04:30:23;7.50;;;5.00;;
11078;SDS011;5592;49.234;7.268;2023-05-07T04:32:49;9.40;;;5.27;;
11078;SDS011;5592;49.234;7.268;2023-05-07T04:35:15;7.70;;;4.50;;
11078;SDS011;5592;49.234;7.268;2023-05-07T04:37:40;10.23;;;5.77;;
11078;SDS011;5592;49.234;7.268;2023-05-07T04:40:06;10.17;;;5.30;;
11078;SDS011;5592;49.234;7.268;2023-05-07T04:42:33;5.63;;;5.03;;
11078;SDS011;5592;49.234;7.268;2023-05-07T04:44:58;7.57;;;4.77;;
11078;SDS011;5592;49.234;7.268;2023-05-07T04:47:25;6.30;;;4.80;;
11078;SDS011;5592;49.234;7.268;2023-05-07T04:49:50;6.90;;;4.53;;
11078;SDS011;5592;49.234;7.268;2023-05-07T04:52:16;6.27;;;4.43;;
11078;SDS011;5592;49.234;7.268;2023-05-07T04:54:42;8.30;;;4.80;;
11078;SDS011;5592;49.234;7.268;2023-05-07T04:57:07;5.30;;;4.27;;
11078;SDS011;5592;49.234;7.268;2023-05-07T04:59:33;5.23;;;4.73;;
11078;SDS011;5592;49.234;7.268;2023-05-07T05:01:59;10.50;;;4.27;;
11078;SDS011;5592;49.234;7.268;2023-05-07T05:04:24;6.67;;;4.73;;
11078;SDS011;5592;49.234;7.268;2023-05-07T05:06:50;5.27;;;4.77;;
11078;SDS011;5592;49.234;7.268;2023-05-07T05:09:16;7.23;;;4.60;;
11078;SDS011;5592;49.234;7.268;2023-05-07T05:11:41;5.63;;;4.90;;
11078;SDS011;5592;49.234;7.268;2023-05-07T05:14:07;4.80;;;4.30;;
11078;SDS011;5592;49.234;7.268;2023-05-07T05:16:33;4.47;;;3.73;;
11078;SDS011;5592;49.234;7.268;2023-05-07T05:18:59;4.63;;;3.80;;
11078;SDS011;5592;49.234;7.268;2023-05-07T05:21:24;5.30;;;4.40;;
11078;SDS011;5592;49.234;7.268;2023-05-07T05:23:50;6.10;;;4.27;;
11078;SDS011;5592;49.234;7.268;2023-05-07T05:26:15;5.33;;;3.90;;
11078;SDS011;5592;49.234;7.268;2023-05-07T05:28:41;6.70;;;3.60;;
11078;SDS011;5592;49.234;7.268;2023-05-07T05:31:07;6.13;;;3.87;;
11078;SDS011;5592;49.234;7.268;2023-05-07T05:33:33;5.87;;;3.93;;
11078;SDS011;5592;49.234;7.268;2023-05-07T05:35:58;7.33;;;3.90;;
11078;SDS011;5592;49.234;7.268;2023-05-07T05:38:24;4.67;;;3.57;;
11078;SDS011;5592;49.234;7.268;2023-05-07T05:40:50;6.40;;;3.70;;
11078;SDS011;5592;49.234;7.268;2023-05-07T05:43:16;4.07;;;3.67;;
11078;SDS011;5592;49.234;7.268;2023-05-07T05:45:41;4.00;;;3.57;;
11078;SDS011;5592;49.234;7.268;2023-05-07T05:48:07;4.27;;;3.33;;
11078;SDS011;5592;49.234;7.268;2023-05-07T05:50:33;3.17;;;2.90;;
11078;SDS011;5592;49.234;7.268;2023-05-07T05:53:00;3.33;;;3.03;;
11078;SDS011;5592;49.234;7.268;2023-05-07T05:55:26;7.47;;;3.43;;
11078;SDS011;5592;49.234;7.268;2023-05-07T05:57:52;3.90;;;3.47;;
11078;SDS011;5592;49.234;7.268;2023-05-07T06:00:17;3.40;;;3.10;;
11078;SDS011;5592;49.234;7.268;2023-05-07T06:02:43;3.20;;;2.90;;
11078;SDS011;5592;49.234;7.268;2023-05-07T06:05:09;3.90;;;3.00;;
11078;SDS011;5592;49.234;7.268;2023-05-07T06:07:35;4.50;;;3.13;;
11078;SDS011;5592;49.234;7.268;2023-05-07T06:10:01;2.60;;;2.40;;
11078;SDS011;5592;49.234;7.268;2023-05-07T06:12:26;3.70;;;3.00;;
11078;SDS011;5592;49.234;7.268;2023-05-07T06:14:52;4.20;;;3.00;;
11078;SDS011;5592;49.234;7.268;2023-05-07T06:17:17;3.57;;;2.70;;
11078;SDS011;5592;49.234;7.268;2023-05-07T06:19:43;2.83;;;2.63;;
11078;SDS011;5592;49.234;7.268;2023-05-07T06:22:08;3.77;;;3.20;;
11078;SDS011;5592;49.234;7.268;2023-05-07T06:24:37;6.83;;;2.97;;
11078;SDS011;5592;49.234;7.268;2023-05-07T06:27:03;4.60;;;2.63;;
11078;SDS011;5592;49.234;7.268;2023-05-07T06:29:29;3.57;;;2.70;;
11078;SDS011;5592;49.234;7.268;2023-05-07T06:32:05;2.97;;;2.67;;
11078;SDS011;5592;49.234;7.268;2023-05-07T06:34:34;5.93;;;2.83;;
11078;SDS011;5592;49.234;7.268;2023-05-07T06:37:00;2.90;;;2.60;;
11078;SDS011;5592;49.234;7.268;2023-05-07T06:39:25;5.40;;;2.67;;
11078;SDS011;5592;49.234;7.268;2023-05-07T06:41:51;2.77;;;2.53;;
11078;SDS011;5592;49.234;7.268;2023-05-07T06:44:16;2.90;;;2.17;;
11078;SDS011;5592;49.234;7.268;2023-05-07T06:46:42;5.73;;;3.10;;
11078;SDS011;5592;49.234;7.268;2023-05-07T06:49:08;3.10;;;2.80;;
11078;SDS011;5592;49.234;7.268;2023-05-07T06:51:33;8.13;;;2.70;;
11078;SDS011;5592;49.234;7.268;2023-05-07T06:53:59;3.80;;;2.80;;
11078;SDS011;5592;49.234;7.268;2023-05-07T06:56:25;4.80;;;2.77;;
11078;SDS011;5592;49.234;7.268;2023-05-07T06:58:50;3.60;;;2.70;;
11078;SDS011;5592;49.234;7.268;2023-05-07T07:01:16;5.20;;;2.70;;
11078;SDS011;5592;49.234;7.268;2023-05-07T07:03:41;4.40;;;2.97;;
11078;SDS011;5592;49.234;7.268;2023-05-07T07:06:07;2.77;;;2.50;;
11078;SDS011;5592;49.234;7.268;2023-05-07T07:08:33;3.57;;;3.03;;
11078;SDS011;5592;49.234;7.268;2023-05-07T07:10:59;2.67;;;2.43;;
11078;SDS011;5592;49.234;7.268;2023-05-07T07:13:25;4.60;;;2.53;;
11078;SDS011;5592;49.234;7.268;2023-05-07T07:15:51;3.07;;;2.20;;
11078;SDS011;5592;49.234;7.268;2023-05-07T07:18:18;2.33;;;1.97;;
11078;SDS011;5592;49.234;7.268;2023-05-07T07:20:43;2.60;;;2.40;;
11078;SDS011;5592;49.234;7.268;2023-05-07T07:23:09;2.83;;;2.50;;
11078;SDS011;5592;49.234;7.268;2023-05-07T07:25:35;2.70;;;2.50;;
11078;SDS011;5592;49.234;7.268;2023-05-07T07:28:01;3.27;;;2.97;;
11078;SDS011;5592;49.234;7.268;2023-05-07T07:30:26;4.70;;;2.70;;
11078;SDS011;5592;49.234;7.268;2023-05-07T07:32:52;2.83;;;2.40;;
11078;SDS011;5592;49.234;7.268;2023-05-07T07:35:18;3.50;;;2.30;;
11078;SDS011;5592;49.234;7.268;2023-05-07T07:37:44;3.40;;;2.30;;
11078;SDS011;5592;49.234;7.268;2023-05-07T07:40:10;5.40;;;2.20;;
11078;SDS011;5592;49.234;7.268;2023-05-07T07:42:37;2.60;;;2.40;;
11078;SDS011;5592;49.234;7.268;2023-05-07T07:45:02;2.67;;;2.20;;
11078;SDS011;5592;49.234;7.268;2023-05-07T07:47:31;1.83;;;1.70;;
11078;SDS011;5592;49.234;7.268;2023-05-07T07:49:56;4.87;;;2.20;;
11078;SDS011;5592;49.234;7.268;2023-05-07T07:52:22;4.13;;;2.27;;
11078;SDS011;5592;49.234;7.268;2023-05-07T07:54:48;4.23;;;2.00;;
11078;SDS011;5592;49.234;7.268;2023-05-07T07:57:13;3.83;;;2.17;;
11078;SDS011;5592;49.234;7.268;2023-05-07T07:59:39;3.67;;;2.23;;
11078;SDS011;5592;49.234;7.268;2023-05-07T08:02:05;3.73;;;2.37;;
11078;SDS011;5592;49.234;7.268;2023-05-07T08:04:31;5.90;;;2.50;;
11078;SDS011;5592;49.234;7.268;2023-05-07T08:06:58;4.00;;;2.50;;
11078;SDS011;5592;49.234;7.268;2023-05-07T08:09:23;2.60;;;2.40;;
11078;SDS011;5592;49.234;7.268;2023-05-07T08:11:49;4.90;;;2.50;;
11078;SDS011;5592;49.234;7.268;2023-05-07T08:14:14;2.40;;;2.20;;
11078;SDS011;5592;49.234;7.268;2023-05-07T08:16:40;2.27;;;2.10;;
11078;SDS011;5592;49.234;7.268;2023-05-07T08:19:06;4.23;;;2.00;;
11078;SDS011;5592;49.234;7.268;2023-05-07T08:21:32;2.67;;;2.00;;
11078;SDS011;5592;49.234;7.268;2023-05-07T08:23:57;3.63;;;1.83;;
11078;SDS011;5592;49.234;7.268;2023-05-07T08:26:23;3.23;;;1.90;;
11078;SDS011;5592;49.234;7.268;2023-05-07T08:28:49;2.70;;;2.37;;
11078;SDS011;5592;49.234;7.268;2023-05-07T08:31:14;3.63;;;2.33;;
11078;SDS011;5592;49.234;7.268;2023-05-07T08:33:40;6.07;;;2.50;;
11078;SDS011;5592;49.234;7.268;2023-05-07T08:36:05;2.40;;;2.20;;
11078;SDS011;5592;49.234;7.268;2023-05-07T08:38:31;2.73;;;2.50;;
11078;SDS011;5592;49.234;7.268;2023-05-07T08:40:57;2.50;;;2.27;;
11078;SDS011;5592;49.234;7.268;2023-05-07T08:43:22;2.00;;;1.90;;
11078;SDS011;5592;49.234;7.268;2023-05-07T08:45:53;4.23;;;2.20;;
11078;SDS011;5592;49.234;7.268;2023-05-07T08:48:21;2.57;;;2.37;;
11078;SDS011;5592;49.234;7.268;2023-05-07T08:50:50;2.73;;;2.20;;
11078;SDS011;5592;49.234;7.268;2023-05-07T08:53:16;10.30;;;2.50;;
11078;SDS011;5592;49.234;7.268;2023-05-07T08:55:42;4.27;;;1.87;;
11078;SDS011;5592;49.234;7.268;2023-05-07T08:58:08;2.50;;;2.00;;
11078;SDS011;5592;49.234;7.268;2023-05-07T09:00:36;2.50;;;2.30;;
11078;SDS011;5592;49.234;7.268;2023-05-07T09:03:02;2.10;;;1.90;;
11078;SDS011;5592;49.234;7.268;2023-05-07T09:05:27;3.63;;;1.93;;
11078;SDS011;5592;49.234;7.268;2023-05-07T09:07:53;1.93;;;1.83;;
11078;SDS011;5592;49.234;7.268;2023-05-07T09:10:20;2.70;;;2.50;;
11078;SDS011;5592;49.234;7.268;2023-05-07T09:12:46;6.63;;;2.23;;
11078;SDS011;5592;49.234;7.268;2023-05-07T09:15:12;2.40;;;2.20;;
11078;SDS011;5592;49.234;7.268;2023-05-07T09:17:38;3.13;;;2.33;;
11078;SDS011;5592;49.234;7.268;2023-05-07T09:20:04;2.10;;;1.90;;
11078;SDS011;5592;49.234;7.268;2023-05-07T09:22:34;3.60;;;2.70;;
11078;SDS011;5592;49.234;7.268;2023-05-07T09:25:01;2.03;;;1.83;;
11078;SDS011;5592;49.234;7.268;2023-05-07T09:27:27;3.63;;;2.60;;
11078;SDS011;5592;49.234;7.268;2023-05-07T09:29:53;3.50;;;2.33;;
11078;SDS011;5592;49.234;7.268;2023-05-07T09:32:18;4.17;;;2.20;;
11078;SDS011;5592;49.234;7.268;2023-05-07T09:34:44;3.63;;;2.43;;
11078;SDS011;5592;49.234;7.268;2023-05-07T09:37:10;2.70;;;2.20;;
11078;SDS011;5592;49.234;7.268;2023-05-07T09:39:38;3.53;;;2.40;;
11078;SDS011;5592;49.234;7.268;2023-05-07T09:42:07;2.50;;;2.30;;
11078;SDS011;5592;49.234;7.268;2023-05-07T09:44:34;2.60;;;2.40;;
11078;SDS011;5592;49.234;7.268;2023-05-07T09:47:00;2.37;;;2.17;;
11078;SDS011;5592;49.234;7.268;2023-05-07T09:49:29;3.33;;;2.43;;
11078;SDS011;5592;49.234;7.268;2023-05-07T09:51:58;3.23;;;2.00;;
11078;SDS011;5592;49.234;7.268;2023-05-07T09:54:26;4.73;;;2.60;;
11078;SDS011;5592;49.234;7.268;2023-05-07T09:56:55;3.73;;;2.47;;
11078;SDS011;5592;49.234;7.268;2023-05-07T09:59:22;3.00;;;2.10;;
11078;SDS011;5592;49.234;7.268;2023-05-07T10:01:50;2.57;;;2.30;;
11078;SDS011;5592;49.234;7.268;2023-05-07T10:04:18;2.67;;;1.90;;
11078;SDS011;5592;49.234;7.268;2023-05-07T10:06:45;2.37;;;2.00;;
11078;SDS011;5592;49.234;7.268;2023-05-07T10:09:11;2.60;;;2.40;;
11078;SDS011;5592;49.234;7.268;2023-05-07T10:11:38;2.43;;;2.00;;
11078;SDS011;5592;49.234;7.268;2023-05-07T10:14:05;4.53;;;2.17;;
11078;SDS011;5592;49.234;7.268;2023-05-07T10:16:31;2.73;;;2.20;;
11078;SDS011;5592;49.234;7.268;2023-05-07T10:19:01;3.13;;;2.63;;
11078;SDS011;5592;49.234;7.268;2023-05-07T10:21:32;2.30;;;1.90;;
11078;SDS011;5592;49.234;7.268;2023-05-07T10:26:47;4.70;;;2.13;;
11078;SDS011;5592;49.234;7.268;2023-05-07T10:29:18;2.40;;;2.10;;
11078;SDS011;5592;49.234;7.268;2023-05-07T10:34:37;2.30;;;1.80;;
11078;SDS011;5592;49.234;7.268;2023-05-07T10:37:06;3.43;;;1.80;;
11078;SDS011;5592;49.234;7.268;2023-05-07T10:39:34;3.20;;;2.13;;
11078;SDS011;5592;49.234;7.268;2023-05-07T10:42:09;2.83;;;2.33;;
11078;SDS011;5592;49.234;7.268;2023-05-07T10:44:36;3.00;;;2.33;;
11078;SDS011;5592;49.234;7.268;2023-05-07T10:47:05;4.40;;;1.90;;
11078;SDS011;5592;49.234;7.268;2023-05-07T10:49:36;2.23;;;2.10;;
11078;SDS011;5592;49.234;7.268;2023-05-07T10:52:22;3.13;;;2.17;;
11078;SDS011;5592;49.234;7.268;2023-05-07T10:55:36;6.20;;;2.07;;
11078;SDS011;5592;49.234;7.268;2023-05-07T10:57:43;3.67;;;2.20;;
11078;SDS011;5592;49.234;7.268;2023-05-07T11:03:26;2.27;;;2.03;;
11078;SDS011;5592;49.234;7.268;2023-05-07T11:05:30;2.83;;;2.20;;
11078;SDS011;5592;49.234;7.268;2023-05-07T11:08:00;13.50;;;2.10;;
11078;SDS011;5592;49.234;7.268;2023-05-07T11:13:40;4.60;;;1.97;;
11078;SDS011;5592;49.234;7.268;2023-05-07T11:16:24;2.10;;;1.90;;
11078;SDS011;5592;49.234;7.268;2023-05-07T11:18:55;2.10;;;1.90;;
11078;SDS011;5592;49.234;7.268;2023-05-07T11:21:40;2.30;;;1.70;;
11078;SDS011;5592;49.234;7.268;2023-05-07T11:24:07;3.13;;;1.97;;
11078;SDS011;5592;49.234;7.268;2023-05-07T11:27:08;1.97;;;1.70;;
11078;SDS011;5592;49.234;7.268;2023-05-07T11:29:29;6.03;;;1.60;;
11078;SDS011;5592;49.234;7.268;2023-05-07T11:31:55;3.93;;;1.80;;
11078;SDS011;5592;49.234;7.268;2023-05-07T11:34:23;3.67;;;1.80;;
11078;SDS011;5592;49.234;7.268;2023-05-07T11:36:50;1.47;;;1.37;;
11078;SDS011;5592;49.234;7.268;2023-05-07T11:41:55;2.20;;;1.80;;
11078;SDS011;5592;49.234;7.268;2023-05-07T11:44:20;2.80;;;2.10;;
11078;SDS011;5592;49.234;7.268;2023-05-07T11:46:46;3.97;;;1.33;;
11078;SDS011;5592;49.234;7.268;2023-05-07T11:49:13;2.23;;;1.93;;
11078;SDS011;5592;49.234;7.268;2023-05-07T11:51:39;1.93;;;1.73;;
11078;SDS011;5592;49.234;7.268;2023-05-07T11:54:05;2.53;;;2.33;;
11078;SDS011;5592;49.234;7.268;2023-05-07T11:56:36;2.00;;;1.80;;
11078;SDS011;5592;49.234;7.268;2023-05-07T11:59:02;2.07;;;1.70;;
11078;SDS011;5592;49.234;7.268;2023-05-07T12:01:27;3.13;;;1.80;;
11078;SDS011;5592;49.234;7.268;2023-05-07T12:03:53;2.90;;;1.77;;
11078;SDS011;5592;49.234;7.268;2023-05-07T12:06:19;4.53;;;2.00;;
11078;SDS011;5592;49.234;7.268;2023-05-07T12:08:45;1.57;;;1.33;;
11078;SDS011;5592;49.234;7.268;2023-05-07T12:11:24;1.60;;;1.50;;
11078;SDS011;5592;49.234;7.268;2023-05-07T12:13:50;19.30;;;2.47;;
11078;SDS011;5592;49.234;7.268;2023-05-07T12:16:17;2.33;;;1.70;;
11078;SDS011;5592;49.234;7.268;2023-05-07T12:18:43;2.10;;;1.80;;
11078;SDS011;5592;49.234;7.268;2023-05-07T12:21:09;2.37;;;1.50;;
11078;SDS011;5592;49.234;7.268;2023-05-07T12:23:36;3.70;;;2.17;;
11078;SDS011;5592;49.234;7.268;2023-05-07T12:26:02;4.60;;;1.90;;
11078;SDS011;5592;49.234;7.268;2023-05-07T12:28:31;3.60;;;2.20;;
11078;SDS011;5592;49.234;7.268;2023-05-07T12:31:01;3.40;;;2.40;;
11078;SDS011;5592;49.234;7.268;2023-05-07T12:33:27;5.27;;;2.13;;
11078;SDS011;5592;49.234;7.268;2023-05-07T12:35:54;2.30;;;2.10;;
11078;SDS011;5592;49.234;7.268;2023-05-07T12:38:20;2.63;;;1.80;;
11078;SDS011;5592;49.234;7.268;2023-05-07T12:40:47;2.40;;;2.20;;
11078;SDS011;5592;49.234;7.268;2023-05-07T12:43:19;2.50;;;1.83;;
11078;SDS011;5592;49.234;7.268;2023-05-07T12:45:48;8.67;;;2.47;;
11078;SDS011;5592;49.234;7.268;2023-05-07T12:48:15;2.77;;;2.17;;
11078;SDS011;5592;49.234;7.268;2023-05-07T12:50:41;3.43;;;2.30;;
11078;SDS011;5592;49.234;7.268;2023-05-07T12:53:07;2.40;;;2.20;;
11078;SDS011;5592;49.234;7.268;2023-05-07T12:55:43;3.27;;;2.40;;
11078;SDS011;5592;49.234;7.268;2023-05-07T12:58:20;3.57;;;2.93;;
11078;SDS011;5592;49.234;7.268;2023-05-07T13:00:49;5.20;;;3.00;;
11078;SDS011;5592;49.234;7.268;2023-05-07T13:03:29;4.03;;;2.90;;
11078;SDS011;5592;49.234;7.268;2023-05-07T13:05:56;2.70;;;2.50;;
11078;SDS011;5592;49.234;7.268;2023-05-07T13:08:24;4.10;;;2.50;;
11078;SDS011;5592;49.234;7.268;2023-05-07T13:10:50;3.77;;;2.40;;
11078;SDS011;5592;49.234;7.268;2023-05-07T13:13:16;4.97;;;3.00;;
11078;SDS011;5592;49.234;7.268;2023-05-07T13:15:42;2.67;;;2.43;;
11078;SDS011;5592;49.234;7.268;2023-05-07T13:18:07;3.80;;;3.37;;
11078;SDS011;5592;49.234;7.268;2023-05-07T13:20:35;3.83;;;3.07;;
11078;SDS011;5592;49.234;7.268;2023-05-07T13:23:00;3.17;;;2.97;;
11078;SDS011;5592;49.234;7.268;2023-05-07T13:25:27;5.73;;;3.03;;
11078;SDS011;5592;49.234;7.268;2023-05-07T13:27:52;5.33;;;3.00;;
11078;SDS011;5592;49.234;7.268;2023-05-07T13:30:18;3.97;;;3.57;;
11078;SDS011;5592;49.234;7.268;2023-05-07T13:32:43;5.23;;;3.87;;
11078;SDS011;5592;49.234;7.268;2023-05-07T13:35:10;4.50;;;3.47;;
11078;SDS011;5592;49.234;7.268;2023-05-07T13:37:36;9.13;;;4.10;;
11078;SDS011;5592;49.234;7.268;2023-05-07T13:40:01;4.50;;;3.47;;
11078;SDS011;5592;49.234;7.268;2023-05-07T13:42:27;3.97;;;3.20;;
11078;SDS011;5592;49.234;7.268;2023-05-07T13:44:53;5.77;;;3.40;;
11078;SDS011;5592;49.234;7.268;2023-05-07T13:47:18;4.33;;;3.67;;
11078;SDS011;5592;49.234;7.268;2023-05-07T13:49:44;6.43;;;3.93;;
11078;SDS011;5592;49.234;7.268;2023-05-07T13:52:10;5.03;;;3.43;;
11078;SDS011;5592;49.234;7.268;2023-05-07T13:54:36;5.50;;;3.40;;
11078;SDS011;5592;49.234;7.268;2023-05-07T13:57:01;5.53;;;3.30;;
11078;SDS011;5592;49.234;7.268;2023-05-07T13:59:27;3.83;;;3.43;;
11078;SDS011;5592;49.234;7.268;2023-05-07T14:01:55;4.80;;;3.87;;
11078;SDS011;5592;49.234;7.268;2023-05-07T14:04:21;4.80;;;4.23;;
11078;SDS011;5592;49.234;7.268;2023-05-07T14:06:46;3.70;;;2.60;;
11078;SDS011;5592;49.234;7.268;2023-05-07T14:09:12;4.00;;;3.40;;
11078;SDS011;5592;49.234;7.268;2023-05-07T14:11:38;3.23;;;3.00;;
11078;SDS011;5592;49.234;7.268;2023-05-07T14:14:04;4.50;;;3.67;;
11078;SDS011;5592;49.234;7.268;2023-05-07T14:16:30;5.23;;;3.90;;
11078;SDS011;5592;49.234;7.268;2023-05-07T14:18:56;3.50;;;3.20;;
11078;SDS011;5592;49.234;7.268;2023-05-07T14:21:21;4.10;;;2.97;;
11078;SDS011;5592;49.234;7.268;2023-05-07T14:23:47;4.07;;;3.27;;
11078;SDS011;5592;49.234;7.268;2023-05-07T14:26:13;5.50;;;3.30;;
11078;SDS011;5592;49.234;7.268;2023-05-07T14:28:39;4.57;;;3.53;;
11078;SDS011;5592;49.234;7.268;2023-05-07T14:31:05;5.60;;;3.80;;
11078;SDS011;5592;49.234;7.268;2023-05-07T14:33:31;4.70;;;4.13;;
11078;SDS011;5592;49.234;7.268;2023-05-07T14:36:00;5.40;;;3.60;;
11078;SDS011;5592;49.234;7.268;2023-05-07T14:38:55;6.10;;;3.50;;
11078;SDS011;5592;49.234;7.268;2023-05-07T14:41:21;7.23;;;3.50;;
11078;SDS011;5592;49.234;7.268;2023-05-07T14:43:47;4.53;;;3.70;;
11078;SDS011;5592;49.234;7.268;2023-05-07T14:46:18;4.27;;;2.83;;
11078;SDS011;5592;49.234;7.268;2023-05-07T14:48:44;3.23;;;2.70;;
11078;SDS011;5592;49.234;7.268;2023-05-07T14:51:12;3.93;;;2.63;;
11078;SDS011;5592;49.234;7.268;2023-05-07T14:53:40;3.70;;;2.80;;
11078;SDS011;5592;49.234;7.268;2023-05-07T14:56:06;5.10;;;3.50;;
11078;SDS011;5592;49.234;7.268;2023-05-07T14:58:32;3.67;;;3.00;;
11078;SDS011;5592;49.234;7.268;2023-05-07T15:00:58;3.40;;;2.63;;
11078;SDS011;5592;49.234;7.268;2023-05-07T15:03:24;2.93;;;2.73;;
11078;SDS011;5592;49.234;7.268;2023-05-07T15:05:50;5.50;;;2.80;;
11078;SDS011;5592;49.234;7.268;2023-05-07T15:08:16;6.50;;;3.03;;
11078;SDS011;5592;49.234;7.268;2023-05-07T15:10:42;2.87;;;2.47;;